createdAt,value
2022-07-31T00:00:32.067Z,101659.84
2022-07-31T00:03:00.043Z,101647.78
2022-07-31T00:05:28.224Z,101659.03
2022-07-31T00:07:56.180Z,101646.44
2022-07-31T00:10:25.609Z,101651.09
2022-07-31T00:12:53.742Z,101648.66
2022-07-31T00:15:21.843Z,101650.56
2022-07-31T00:17:50.412Z,101639.88
2022-07-31T00:20:19.331Z,101640.16
2022-07-31T00:22:48.765Z,101632.22
2022-07-31T00:25:17.786Z,101640.47
2022-07-31T00:27:47.472Z,101628.97
2022-07-31T00:30:16.996Z,101643.78
2022-07-31T00:32:45.351Z,101637.75
2022-07-31T00:35:14.116Z,101631.44
2022-07-31T00:37:43.180Z,101638.84
2022-07-31T00:40:14.093Z,101642.72
2022-07-31T00:42:42.284Z,101650.41
2022-07-31T00:45:13.667Z,101649.03
2022-07-31T00:47:42.012Z,101649.03
2022-07-31T00:50:10.874Z,101651.25
2022-07-31T00:52:38.704Z,101647.97
2022-07-31T00:55:07.407Z,101647.19
2022-07-31T00:57:35.591Z,101629.16
2022-07-31T01:00:04.393Z,101645.00
2022-07-31T01:02:33.549Z,101645.28
2022-07-31T01:05:01.316Z,101647.47
2022-07-31T01:07:29.106Z,101634.88
2022-07-31T01:09:57.587Z,101627.75
2022-07-31T01:12:33.028Z,101639.81
2022-07-31T01:15:06.127Z,101633.81
2022-07-31T01:17:38.001Z,101638.75
2022-07-31T01:20:08.399Z,101636.28
2022-07-31T01:22:50.227Z,101634.91
2022-07-31T01:25:30.868Z,101639.59
2022-07-31T01:28:08.188Z,101637.13
2022-07-31T01:30:43.199Z,101631.09
2022-07-31T01:33:15.660Z,101636.59
2022-07-31T01:35:47.006Z,101630.56
2022-07-31T01:38:19.118Z,101625.09
2022-07-31T01:40:49.642Z,101623.47
2022-07-31T01:43:23.108Z,101624.56
2022-07-31T01:45:56.731Z,101627.59
2022-07-31T01:48:25.200Z,101625.94
2022-07-31T01:50:55.205Z,101629.25
2022-07-31T01:53:25.271Z,101628.16
2022-07-31T01:56:02.823Z,101621.31
2022-07-31T01:58:37.670Z,101622.13
2022-07-31T02:01:09.016Z,101625.97
2022-07-31T02:03:43.469Z,101626.25
2022-07-31T02:06:15.771Z,101624.34
2022-07-31T02:08:46.224Z,101619.72
2022-07-31T02:11:17.028Z,101619.13
2022-07-31T02:13:46.406Z,101619.13
2022-07-31T02:16:16.461Z,101622.16
2022-07-31T02:18:44.690Z,101618.59
2022-07-31T02:21:12.722Z,101616.97
2022-07-31T02:23:40.484Z,101620.81
2022-07-31T02:26:09.414Z,101620.03
2022-07-31T02:28:41.713Z,101618.38
2022-07-31T02:31:13.066Z,101619.78
2022-07-31T02:33:45.232Z,101624.44
2022-07-31T02:36:14.857Z,101611.34
2022-07-31T02:38:45.218Z,101634.56
2022-07-31T02:41:15.590Z,101629.38
2022-07-31T02:43:45.334Z,101631.56
2022-07-31T02:46:14.663Z,101628.28
2022-07-31T02:48:44.549Z,101600.16
2022-07-31T02:51:12.642Z,101621.47
2022-07-31T02:53:41.874Z,101624.47
2022-07-31T02:56:10.313Z,101616.84
2022-07-31T02:58:41.944Z,101615.19
2022-07-31T03:01:10.575Z,101584.91
2022-07-31T03:03:38.460Z,101608.94
2022-07-31T03:06:07.700Z,101608.91
2022-07-31T03:08:35.922Z,101600.22
2022-07-31T03:11:03.743Z,101598.25
2022-07-31T03:13:34.938Z,101611.41
2022-07-31T03:16:04.251Z,101600.44
2022-07-31T03:18:32.795Z,101591.16
2022-07-31T03:21:00.660Z,101594.44
2022-07-31T03:23:36.590Z,101592.81
2022-07-31T03:26:05.207Z,101583.22
2022-07-31T03:28:34.466Z,101576.16
2022-07-31T03:31:02.443Z,101596.09
2022-07-31T03:33:30.464Z,101590.91
2022-07-31T03:35:59.120Z,101593.09
2022-07-31T03:38:39.483Z,101594.19
2022-07-31T03:41:12.696Z,101595.31
2022-07-31T03:43:47.532Z,101597.22
2022-07-31T03:46:19.725Z,101599.41
2022-07-31T03:48:48.242Z,101601.34
2022-07-31T03:51:16.940Z,101596.97
2022-07-31T03:53:45.436Z,101589.03
2022-07-31T03:56:17.229Z,101590.94
2022-07-31T03:58:48.635Z,101596.44
2022-07-31T04:01:22.028Z,101598.34
2022-07-31T04:03:49.949Z,101594.78
2022-07-31T04:06:17.938Z,101600.53
2022-07-31T04:08:45.706Z,101597.81
2022-07-31T04:11:14.975Z,101598.38
2022-07-31T04:13:43.180Z,101596.16
2022-07-31T04:16:11.002Z,101599.19
2022-07-31T04:18:38.752Z,101606.81
2022-07-31T04:21:06.523Z,101607.94
2022-07-31T04:23:34.252Z,101606.28
2022-07-31T04:26:02.215Z,101609.31
2022-07-31T04:28:31.490Z,101603.00
2022-07-31T04:30:59.288Z,101606.84
2022-07-31T04:33:27.286Z,101600.84
2022-07-31T04:35:55.048Z,101612.59
2022-07-31T04:38:22.837Z,101611.78
2022-07-31T04:40:51.588Z,101616.72
2022-07-31T04:43:19.586Z,101621.38
2022-07-31T04:45:48.852Z,101617.81
2022-07-31T04:48:17.335Z,101620.00
2022-07-31T04:50:45.260Z,101624.66
2022-07-31T04:53:12.993Z,101613.19
2022-07-31T04:55:40.706Z,101593.78
2022-07-31T04:58:08.508Z,101608.81
2022-07-31T05:00:36.313Z,101607.97
2022-07-31T05:03:05.684Z,101611.81
2022-07-31T05:05:33.437Z,101609.34
2022-07-31T05:08:02.207Z,101598.44
2022-07-31T05:10:56.103Z,101608.00
2022-07-31T05:13:23.888Z,101603.63
2022-07-31T05:15:51.806Z,101599.25
2022-07-31T05:18:20.937Z,101605.81
2022-07-31T05:20:48.771Z,101605.00
2022-07-31T05:23:17.120Z,101602.25
2022-07-31T05:25:45.240Z,101600.63
2022-07-31T05:28:12.971Z,101596.25
2022-07-31T05:30:41.758Z,101592.69
2022-07-31T05:33:09.536Z,101594.59
2022-07-31T05:35:40.518Z,101592.97
2022-07-31T05:38:11.818Z,101589.41
2022-07-31T05:40:39.794Z,101586.13
2022-07-31T05:43:07.601Z,101590.50
2022-07-31T05:45:35.345Z,101584.19
2022-07-31T05:48:03.103Z,101580.94
2022-07-31T05:50:30.947Z,101580.38
2022-07-31T05:53:00.183Z,101587.50
2022-07-31T05:55:28.363Z,101598.72
2022-07-31T05:57:56.292Z,101583.97
2022-07-31T06:00:24.670Z,101595.44
2022-07-31T06:02:52.643Z,101594.63
2022-07-31T06:05:20.528Z,101590.25
2022-07-31T06:07:51.361Z,101589.16
2022-07-31T06:10:21.911Z,101595.44
2022-07-31T06:12:50.125Z,101593.25
2022-07-31T06:15:18.164Z,101592.16
2022-07-31T06:17:46.886Z,101582.84
2022-07-31T06:20:15.730Z,101583.94
2022-07-31T06:22:44.942Z,101592.44
2022-07-31T06:25:13.696Z,101591.59
2022-07-31T06:27:47.370Z,101592.69
2022-07-31T06:30:21.557Z,101587.47
2022-07-31T06:32:49.295Z,101577.38
2022-07-31T06:35:17.091Z,101586.94
2022-07-31T06:37:44.887Z,101593.53
2022-07-31T06:40:14.029Z,101580.13
2022-07-31T06:42:45.367Z,101585.59
2022-07-31T06:45:25.087Z,101586.97
2022-07-31T06:48:01.307Z,101580.41
2022-07-31T06:50:29.175Z,101579.03
2022-07-31T06:52:56.965Z,101584.50
2022-07-31T06:55:24.916Z,101583.94
2022-07-31T06:57:54.027Z,101577.13
2022-07-31T07:00:21.808Z,101558.84
2022-07-31T07:02:49.585Z,101585.53
2022-07-31T07:05:17.387Z,101583.09
2022-07-31T07:07:45.166Z,101575.72
2022-07-31T07:10:12.947Z,101576.00
2022-07-31T07:12:40.776Z,101578.72
2022-07-31T07:15:11.385Z,101567.53
2022-07-31T07:17:39.172Z,101568.63
2022-07-31T07:20:08.071Z,101579.81
2022-07-31T07:22:35.911Z,101574.91
2022-07-31T07:25:03.756Z,101568.91
2022-07-31T07:27:31.493Z,101580.13
2022-07-31T07:30:00.622Z,101573.84
2022-07-31T07:32:29.734Z,101573.28
2022-07-31T07:35:00.290Z,101578.75
2022-07-31T07:37:29.319Z,101578.47
2022-07-31T07:39:57.924Z,101566.97
2022-07-31T07:42:31.816Z,101575.72
2022-07-31T07:45:00.307Z,101580.38
2022-07-31T07:48:05.164Z,101566.16
2022-07-31T07:50:19.272Z,101565.59
2022-07-31T07:52:47.479Z,101567.25
2022-07-31T07:55:15.376Z,101568.31
2022-07-31T07:57:45.323Z,101570.25
2022-07-31T08:00:14.796Z,101570.25
2022-07-31T08:03:02.552Z,101569.94
2022-07-31T08:05:32.694Z,101564.97
2022-07-31T08:08:00.741Z,101561.06
2022-07-31T08:10:28.885Z,101570.69
2022-07-31T08:12:57.685Z,101569.59
2022-07-31T08:15:26.028Z,101571.00
2022-07-31T08:17:55.212Z,101568.53
2022-07-31T08:20:23.141Z,101561.38
2022-07-31T08:22:50.936Z,101559.25
2022-07-31T08:25:18.949Z,101564.16
2022-07-31T08:27:47.985Z,101557.88
2022-07-31T08:30:16.993Z,101558.66
2022-07-31T08:32:44.844Z,101561.13
2022-07-31T08:35:14.063Z,101562.78
2022-07-31T08:38:02.175Z,101552.34
2022-07-31T08:40:31.466Z,101558.34
2022-07-31T08:43:19.436Z,101557.53
2022-07-31T08:45:52.345Z,101552.06
2022-07-31T08:48:24.886Z,101560.56
2022-07-31T08:50:55.689Z,101542.00
2022-07-31T08:53:24.613Z,101561.19
2022-07-31T08:55:57.102Z,101559.38
2022-07-31T08:58:25.498Z,101562.13
2022-07-31T09:00:53.343Z,101554.78
2022-07-31T09:03:21.687Z,101569.50
2022-07-31T09:05:49.502Z,101559.38
2022-07-31T09:08:18.737Z,101562.13
2022-07-31T09:10:50.038Z,101553.34
2022-07-31T09:13:19.687Z,101547.31
2022-07-31T09:15:47.698Z,101544.28
2022-07-31T09:18:19.687Z,101551.69
2022-07-31T09:20:58.858Z,101537.97
2022-07-31T09:23:29.367Z,101543.13
2022-07-31T09:25:59.079Z,101542.06
2022-07-31T09:28:34.642Z,101546.16
2022-07-31T09:31:03.206Z,101544.78
2022-07-31T09:33:31.734Z,101539.56
2022-07-31T09:36:00.404Z,101539.25
2022-07-31T09:38:34.819Z,101544.84
2022-07-31T09:41:55.529Z,101552.16
2022-07-31T09:44:10.406Z,101549.66
2022-07-31T09:46:42.823Z,101538.75
2022-07-31T09:49:10.931Z,101545.63
2022-07-31T09:51:40.651Z,101543.25
2022-07-31T09:54:21.382Z,101539.28
2022-07-31T09:56:50.200Z,101530.81
2022-07-31T09:59:18.451Z,101531.97
2022-07-31T10:01:49.459Z,101525.81
2022-07-31T10:04:18.201Z,101531.88
2022-07-31T10:06:48.974Z,101536.97
2022-07-31T10:09:19.952Z,101540.28
2022-07-31T10:11:50.790Z,101532.22
2022-07-31T10:14:23.179Z,101538.56
2022-07-31T10:16:55.649Z,101544.44
2022-07-31T10:19:26.787Z,101541.16
2022-07-31T10:21:58.649Z,101543.03
2022-07-31T10:24:29.827Z,101528.47
2022-07-31T10:27:01.268Z,101525.72
2022-07-31T10:29:32.937Z,101528.75
2022-07-31T10:32:02.226Z,101528.19
2022-07-31T10:34:30.296Z,101535.78
2022-07-31T10:37:04.558Z,101529.22
2022-07-31T10:39:50.443Z,101506.56
2022-07-31T10:42:30.465Z,101518.28
2022-07-31T10:45:05.743Z,101502.69
2022-07-31T10:47:33.693Z,101518.75
2022-07-31T10:50:01.563Z,101522.66
2022-07-31T10:52:31.414Z,101520.44
2022-07-31T10:55:01.872Z,101514.31
2022-07-31T10:57:31.253Z,101512.16
2022-07-31T11:00:11.866Z,101513.78
2022-07-31T11:02:39.754Z,101504.41
2022-07-31T11:05:09.534Z,101472.47
2022-07-31T11:07:37.594Z,101496.00
2022-07-31T11:10:15.298Z,101501.47
2022-07-31T11:12:43.232Z,101486.38
2022-07-31T11:15:24.625Z,101493.97
2022-07-31T11:18:21.041Z,101495.88
2022-07-31T11:20:46.627Z,101496.94
2022-07-31T11:23:16.919Z,101495.53
2022-07-31T11:25:47.554Z,101497.06
2022-07-31T11:28:18.811Z,101488.66
2022-07-31T11:30:52.187Z,101490.19
2022-07-31T11:33:40.974Z,101472.16
2022-07-31T11:36:12.907Z,101482.25
2022-07-31T11:38:42.743Z,101475.59
2022-07-31T11:41:15.057Z,101474.94
2022-07-31T11:43:45.887Z,101475.44
2022-07-31T11:46:14.695Z,101474.72
2022-07-31T11:48:45.540Z,101473.38
2022-07-31T11:51:18.359Z,101461.34
2022-07-31T11:53:46.529Z,101474.31
2022-07-31T11:56:27.981Z,101477.09
2022-07-31T11:58:58.085Z,101475.59
2022-07-31T12:01:28.331Z,101464.97
2022-07-31T12:03:56.951Z,101478.06
2022-07-31T12:06:25.199Z,101471.69
2022-07-31T12:08:53.426Z,101474.34
2022-07-31T12:11:22.115Z,101462.34
2022-07-31T12:13:52.008Z,101470.44
2022-07-31T12:16:20.905Z,101469.69
2022-07-31T12:18:52.317Z,101462.19
2022-07-31T12:21:21.286Z,101473.09
2022-07-31T12:23:50.821Z,101477.84
2022-07-31T12:26:26.831Z,101478.44
2022-07-31T12:29:00.337Z,101456.63
2022-07-31T12:31:28.615Z,101470.50
2022-07-31T12:33:56.563Z,101466.41
2022-07-31T12:36:24.571Z,101474.50
2022-07-31T12:39:00.836Z,101465.16
2022-07-31T12:41:28.522Z,101466.66
2022-07-31T12:43:56.425Z,101462.06
2022-07-31T12:46:37.698Z,101461.84
2022-07-31T12:49:08.255Z,101453.88
2022-07-31T12:51:45.061Z,101440.00
2022-07-31T12:54:14.173Z,101438.97
2022-07-31T12:56:43.508Z,101443.44
2022-07-31T12:59:11.421Z,101418.66
2022-07-31T13:01:41.001Z,101436.00
2022-07-31T13:04:18.394Z,101432.44
2022-07-31T13:06:48.972Z,101433.56
2022-07-31T13:09:16.954Z,101441.06
2022-07-31T13:11:45.888Z,101429.63
2022-07-31T13:14:15.780Z,101420.25
2022-07-31T13:16:45.460Z,101426.34
2022-07-31T13:19:14.009Z,101429.41
2022-07-31T13:21:49.322Z,101406.75
2022-07-31T13:24:18.812Z,101429.63
2022-07-31T13:26:47.212Z,101432.97
2022-07-31T13:29:15.215Z,101436.81
2022-07-31T13:31:45.656Z,101417.91
2022-07-31T13:34:13.648Z,101428.19
2022-07-31T13:36:41.448Z,101429.63
2022-07-31T13:39:09.946Z,101424.41
2022-07-31T13:41:39.059Z,101424.72
2022-07-31T13:44:07.697Z,101393.56
2022-07-31T13:46:35.722Z,101410.59
2022-07-31T13:49:08.762Z,101415.81
2022-07-31T13:51:37.278Z,101410.00
2022-07-31T13:54:05.341Z,101416.84
2022-07-31T13:56:39.469Z,101412.97
2022-07-31T13:59:12.097Z,101405.53
2022-07-31T14:02:03.740Z,101405.84
2022-07-31T14:04:32.323Z,101415.72
2022-07-31T14:07:04.087Z,101413.50
2022-07-31T14:09:34.196Z,101404.72
2022-07-31T14:12:05.835Z,101408.22
2022-07-31T14:14:34.548Z,101392.25
2022-07-31T14:17:02.450Z,101390.63
2022-07-31T14:19:43.808Z,101394.19
2022-07-31T14:22:13.859Z,101388.81
2022-07-31T14:24:49.313Z,101392.66
2022-07-31T14:27:18.979Z,101392.97
2022-07-31T14:29:46.795Z,101378.72
2022-07-31T14:32:14.669Z,101380.13
2022-07-31T14:34:43.902Z,101373.63
2022-07-31T14:37:11.713Z,101384.50
2022-07-31T14:39:42.648Z,101382.06
2022-07-31T14:42:11.122Z,101375.97
2022-07-31T14:44:41.641Z,101375.38
2022-07-31T14:47:09.985Z,101381.06
2022-07-31T14:50:07.699Z,101367.56
2022-07-31T14:52:27.492Z,101361.63
2022-07-31T14:54:55.353Z,101373.25
2022-07-31T14:57:23.114Z,101378.75
2022-07-31T14:59:51.118Z,101368.06
2022-07-31T15:02:22.491Z,101363.69
2022-07-31T15:04:51.153Z,101368.56
2022-07-31T15:07:36.623Z,101361.66
2022-07-31T15:10:10.218Z,101377.34
2022-07-31T15:12:38.158Z,101381.81
2022-07-31T15:15:07.018Z,101399.91
2022-07-31T15:17:34.868Z,101393.09
2022-07-31T15:20:02.683Z,101387.91
2022-07-31T15:22:30.666Z,101363.44
2022-07-31T15:24:58.455Z,101385.47
2022-07-31T15:27:27.597Z,101381.38
2022-07-31T15:30:00.321Z,101379.22
2022-07-31T15:32:36.408Z,101386.34
2022-07-31T15:35:04.439Z,101382.28
2022-07-31T15:37:35.230Z,101352.94
2022-07-31T15:40:04.624Z,101375.66
2022-07-31T15:42:34.652Z,101381.97
2022-07-31T15:45:02.565Z,101383.09
2022-07-31T15:47:30.323Z,101382.59
2022-07-31T15:49:58.092Z,101388.06
2022-07-31T15:52:26.510Z,101394.69
2022-07-31T15:54:54.374Z,101387.25
2022-07-31T15:57:22.804Z,101386.16
2022-07-31T15:59:54.533Z,101384.50
2022-07-31T16:02:23.175Z,101383.19
2022-07-31T16:04:54.855Z,101388.38
2022-07-31T16:08:28.876Z,101383.69
2022-07-31T16:10:16.540Z,101370.75
2022-07-31T16:12:45.672Z,101381.56
2022-07-31T16:15:16.347Z,101384.59
2022-07-31T16:17:45.345Z,101382.47
2022-07-31T16:20:25.293Z,101391.00
2022-07-31T16:22:56.610Z,101388.56
2022-07-31T16:25:25.287Z,101368.47
2022-07-31T16:27:53.146Z,101394.44
2022-07-31T16:30:22.687Z,101395.84
2022-07-31T16:32:51.601Z,101387.81
2022-07-31T16:35:19.574Z,101385.38
2022-07-31T16:37:51.997Z,101385.38
2022-07-31T16:40:28.434Z,101390.66
2022-07-31T16:43:01.233Z,101389.63
2022-07-31T16:45:31.019Z,101369.00
2022-07-31T16:47:59.325Z,101385.31
2022-07-31T16:50:27.455Z,101391.63
2022-07-31T16:52:55.644Z,101385.75
2022-07-31T16:56:00.089Z,101379.00
2022-07-31T16:58:13.729Z,101394.50
2022-07-31T17:00:43.111Z,101399.25
2022-07-31T17:03:59.267Z,101397.63
2022-07-31T17:05:58.914Z,101399.03
2022-07-31T17:08:28.837Z,101396.59
2022-07-31T17:10:56.697Z,101396.81
2022-07-31T17:13:24.681Z,101398.22
2022-07-31T17:15:53.855Z,101391.41
2022-07-31T17:18:25.348Z,101393.56
2022-07-31T17:20:56.245Z,101397.19
2022-07-31T17:23:42.977Z,101402.69
2022-07-31T17:26:21.213Z,101405.22
2022-07-31T17:28:50.889Z,101408.56
2022-07-31T17:31:20.308Z,101411.06
2022-07-31T17:33:49.535Z,101428.13
2022-07-31T17:36:29.536Z,101423.25
2022-07-31T17:38:57.430Z,101426.28
2022-07-31T17:41:26.070Z,101425.75
2022-07-31T17:43:54.541Z,101417.31
2022-07-31T17:46:34.444Z,101420.88
2022-07-31T17:49:06.184Z,101432.16
2022-07-31T17:51:34.191Z,101428.88
2022-07-31T17:54:02.061Z,101429.16
2022-07-31T17:56:30.383Z,101438.22
2022-07-31T17:59:04.274Z,101448.38
2022-07-31T18:01:34.471Z,101444.00
2022-07-31T18:04:03.269Z,101441.56
2022-07-31T18:06:31.351Z,101446.22
2022-07-31T18:09:00.223Z,101422.53
2022-07-31T18:11:28.285Z,101456.16
2022-07-31T18:14:00.777Z,101443.56
2022-07-31T18:16:29.074Z,101446.28
2022-07-31T18:18:58.946Z,101441.34
2022-07-31T18:21:26.687Z,101435.31
2022-07-31T18:23:54.575Z,101445.06
2022-07-31T18:26:23.197Z,101445.13
2022-07-31T18:28:50.985Z,101447.88
2022-07-31T18:31:33.956Z,101450.09
2022-07-31T18:34:05.241Z,101452.00
2022-07-31T18:36:33.156Z,101462.19
2022-07-31T18:39:00.996Z,101438.47
2022-07-31T18:41:29.095Z,101461.66
2022-07-31T18:43:57.729Z,101466.63
2022-07-31T18:46:25.714Z,101469.66
2022-07-31T18:48:55.742Z,101461.88
2022-07-31T18:51:26.183Z,101478.00
2022-07-31T18:53:54.971Z,101471.50
2022-07-31T18:56:24.002Z,101460.91
2022-07-31T18:58:52.106Z,101469.94
2022-07-31T19:01:20.148Z,101468.06
2022-07-31T19:03:48.211Z,101468.34
2022-07-31T19:06:15.983Z,101471.09
2022-07-31T19:08:46.104Z,101469.16
2022-07-31T19:11:13.922Z,101469.47
2022-07-31T19:13:41.689Z,101466.72
2022-07-31T19:16:09.640Z,101465.91
2022-07-31T19:18:40.224Z,101447.41
2022-07-31T19:21:23.600Z,101463.44
2022-07-31T19:23:57.600Z,101468.94
2022-07-31T19:26:25.436Z,101462.69
2022-07-31T19:28:53.177Z,101468.94
2022-07-31T19:31:21.305Z,101476.63
2022-07-31T19:33:49.552Z,101471.16
2022-07-31T19:36:17.831Z,101472.25
2022-07-31T19:38:45.611Z,101477.75
2022-07-31T19:41:15.894Z,101479.16
2022-07-31T19:43:44.783Z,101481.06
2022-07-31T19:46:12.967Z,101487.69
2022-07-31T19:48:42.217Z,101481.66
2022-07-31T19:51:10.602Z,101462.28
2022-07-31T19:53:38.493Z,101482.78
2022-07-31T19:58:37.050Z,101500.88
2022-07-31T20:01:06.211Z,101501.97
2022-07-31T20:03:34.137Z,101496.50
2022-07-31T20:06:02.276Z,101503.09
2022-07-31T20:08:33.092Z,101500.34
2022-07-31T20:11:03.992Z,101497.94
2022-07-31T20:13:33.066Z,101503.38
2022-07-31T20:16:02.528Z,101496.66
2022-07-31T20:18:30.844Z,101515.75
2022-07-31T20:21:03.650Z,101514.09
2022-07-31T20:23:34.225Z,101516.03
2022-07-31T20:26:02.236Z,101512.47
2022-07-31T20:28:30.045Z,101513.59
2022-07-31T20:30:58.199Z,101508.38
2022-07-31T20:35:55.202Z,101522.16
2022-07-31T20:38:24.108Z,101519.94
2022-07-31T20:40:55.342Z,101526.53
2022-07-31T20:43:25.046Z,101535.06
2022-07-31T20:45:53.910Z,101515.97
2022-07-31T20:48:24.374Z,101534.53
2022-07-31T20:50:54.434Z,101532.88
2022-07-31T20:53:23.092Z,101526.88
2022-07-31T20:55:51.169Z,101532.66
2022-07-31T20:58:20.215Z,101527.16
2022-07-31T21:00:48.928Z,101526.63
2022-07-31T21:03:17.728Z,101508.94
2022-07-31T21:05:46.266Z,101517.63
2022-07-31T21:08:15.861Z,101528.03
2022-07-31T21:10:43.894Z,101530.78
2022-07-31T21:13:11.975Z,101531.06
2022-07-31T21:15:44.810Z,101514.47
2022-07-31T21:18:13.982Z,101533.28
2022-07-31T21:20:51.229Z,101533.84
2022-07-31T21:23:23.508Z,101534.97
2022-07-31T21:25:51.987Z,101542.66
2022-07-31T21:28:19.953Z,101543.47
2022-07-31T21:30:48.387Z,101541.03
2022-07-31T21:33:18.077Z,101544.34
2022-07-31T21:35:46.822Z,101544.34
2022-07-31T21:38:15.747Z,101543.81
2022-07-31T21:40:45.497Z,101546.03
2022-07-31T21:43:16.914Z,101537.25
2022-07-31T21:45:57.769Z,101542.22
2022-07-31T21:48:31.060Z,101548.81
2022-07-31T21:50:59.811Z,101547.16
2022-07-31T21:53:27.788Z,101537.31
2022-07-31T21:55:59.085Z,101540.63
2022-07-31T21:58:27.004Z,101541.72
2022-07-31T22:00:54.852Z,101541.72
2022-07-31T22:03:22.661Z,101544.75
2022-07-31T22:06:07.868Z,101543.38
2022-07-31T22:08:35.613Z,101545.28
2022-07-31T22:11:05.103Z,101553.81
2022-07-31T22:13:32.850Z,101546.41
2022-07-31T22:16:01.674Z,101537.66
2022-07-31T22:18:30.440Z,101516.94
2022-07-31T22:20:58.423Z,101541.78
2022-07-31T22:23:27.425Z,101536.28
2022-07-31T22:25:55.576Z,101548.34
2022-07-31T22:28:26.860Z,101522.16
2022-07-31T22:30:55.604Z,101542.06
2022-07-31T22:33:23.472Z,101535.75
2022-07-31T22:35:58.531Z,101538.50
2022-07-31T22:38:29.294Z,101543.16
2022-07-31T22:40:57.349Z,101545.09
2022-07-31T22:44:11.049Z,101543.44
2022-07-31T22:46:15.165Z,101545.38
2022-07-31T22:48:45.273Z,101545.38
2022-07-31T22:51:15.221Z,101548.94
2022-07-31T22:53:43.677Z,101554.69
2022-07-31T22:56:11.532Z,101556.63
2022-07-31T22:58:40.704Z,101528.53
2022-07-31T23:01:08.507Z,101554.44
2022-07-31T23:03:36.251Z,101553.63
2022-07-31T23:06:30.723Z,101554.72
2022-07-31T23:08:54.799Z,101562.94
2022-07-31T23:11:23.554Z,101564.06
2022-07-31T23:13:52.834Z,101558.59
2022-07-31T23:16:21.281Z,101556.94
2022-07-31T23:18:49.504Z,101548.28
2022-07-31T23:21:18.924Z,101563.53
2022-07-31T23:23:49.021Z,101566.56
2022-07-31T23:26:18.262Z,101562.16
2022-07-31T23:28:46.374Z,101566.84
2022-07-31T23:31:15.644Z,101568.47
2022-07-31T23:33:43.641Z,101566.00
2022-07-31T23:36:11.660Z,101564.41
2022-07-31T23:38:39.796Z,101563.06
2022-07-31T23:41:07.593Z,101563.88
2022-07-31T23:43:34.434Z,101564.16
2022-07-31T23:46:02.382Z,101549.13
2022-07-31T23:48:31.784Z,101566.06
2022-07-31T23:50:59.869Z,101567.19
2022-07-31T23:53:27.668Z,101566.38
2022-07-31T23:55:55.605Z,101561.16
2022-07-31T23:58:23.511Z,101562.28
